Time;durP1;ratioP1;P1;durP2;ratioP2;P2;SDS_P1;SDS_P2;PMS_P1;PMS_P2;Temp;Humidity;BMP_temperature;BMP_pressure;BME280_temperature;BME280_humidity;BME280_pressure;Samples;Min_cycle;Max_cycle;Signal;HPM_P1;HPM_P2
2021/11/07 00:06:48;;;;;;;;;;;;;;;;;;5066646;28;19905;-53
2021/11/07 00:09:51;;;;;;;;;;;;;;;;;;5065344;28;19912;-55
2021/11/07 00:12:15;;;;;;;;;;;;;;;;;;5066439;28;19912;-55
2021/11/07 00:14:40;;;;;;;;;;;;;;;;;;5067656;28;19981;-54
2021/11/07 00:17:06;;;;;;;;;;;;;;;;;;5066322;28;20012;-54
2021/11/07 00:27:21;;;;;;;;;;;;;;;;;;5066442;28;20042;-54
2021/11/07 00:35:52;;;;;;;;;;;;;;;;;;5063305;28;19917;-54
2021/11/07 00:38:29;;;;;;;;;;;;;;;;;;5065562;28;20291;-53
2021/11/07 00:41:16;;;;;;;;;;;;;;;;;;5066265;28;19908;-54
2021/11/07 00:44:06;;;;;;;;;;;;;;;;;;5066793;28;20119;-53
2021/11/07 00:48:59;;;;;;;;;;;;;;;;;;5065747;28;19949;-55
2021/11/07 00:51:43;;;;;;;;;;;;;;;;;;5066017;28;19912;-54
2021/11/07 00:55:03;;;;;;;;;;;;;;;;;;5065967;28;19905;-54
2021/11/07 00:57:00;;;;;;;;;;;;;;;;;;5065398;28;19912;-54
2021/11/07 01:01:59;;;;;;;;;;;;;;;;;;5065609;28;19995;-53
2021/11/07 01:04:27;;;;;;;;;;;;;;;;;;5065815;28;19904;-54
2021/11/07 01:06:53;;;;;;;;;;;;;;;;;;5065867;28;19962;-55
2021/11/07 01:09:19;;;;;;;;;;;;;;;;;;5065307;28;20338;-53
2021/11/07 01:11:46;;;;;;;;;;;;;;;;;;5066037;28;19913;-55
2021/11/07 01:14:12;;;;;;;;;;;;;;;;;;5066210;28;19905;-53
2021/11/07 01:16:38;;;;;;;;;;;;;;;;;;5065710;28;19904;-54
2021/11/07 01:19:04;;;;;;;;;;;;;;;;;;5065947;28;19947;-53
2021/11/07 01:21:34;;;;;;;;;;;;;;;;;;5064838;28;20158;-55
2021/11/07 01:24:04;;;;;;;;;;;;;;;;;;5065923;28;20673;-54
2021/11/07 01:26:45;;;;;;;;;;;;;;;;;;5065311;28;19935;-54
2021/11/07 01:29:16;;;;;;;;;;;;;;;;;;5066049;28;19909;-54
2021/11/07 01:31:42;;;;;;;;;;;;;;;;;;5065748;28;19936;-54
2021/11/07 01:34:17;;;;;;;;;;;;;;;;;;5065407;28;19905;-54
2021/11/07 01:37:00;;;;;;;;;;;;;;;;;;5066018;28;19912;-54
2021/11/07 01:42:09;;;;;;;;;;;;;;;;;;5065075;28;19961;-54
2021/11/07 01:44:35;;;;;;;;;;;;;;;;;;5065501;28;20382;-54
2021/11/07 01:47:02;;;;;;;;;;;;;;;;;;5065123;28;20419;-55
2021/11/07 01:49:35;;;;;;;;;;;;;;;;;;5063729;28;19958;-55
2021/11/07 01:52:04;;;;;;;;;;;;;;;;;;5065160;28;20002;-54
2021/11/07 01:54:36;;;;;;;;;;;;;;;;;;5064892;28;19955;-56
2021/11/07 01:57:02;;;;;;;;;;;;;;;;;;5065144;28;20357;-55
2021/11/07 01:59:27;;;;;;;;;;;;;;;;;;5064812;28;19900;-56
2021/11/07 02:01:53;;;;;;;;;;;;;;;;;;5064859;28;20011;-55
2021/11/07 02:04:19;;;;;;;;;;;;;;;;;;5064812;28;19907;-56
2021/11/07 02:06:45;;;;;;;;;;;;;;;;;;5065056;28;19908;-56
2021/11/07 02:09:11;;;;;;;;;;;;;;;;;;5065448;28;20345;-55
2021/11/07 02:11:37;;;;;;;;;;;;;;;;;;5064660;28;19950;-54
2021/11/07 02:14:03;;;;;;;;;;;;;;;;;;5065098;28;19904;-53
2021/11/07 02:16:29;;;;;;;;;;;;;;;;;;5067948;28;19909;-54
2021/11/07 02:18:55;;;;;;;;;;;;;;;;;;5068984;28;19912;-54
2021/11/07 02:21:21;;;;;;;;;;;;;;;;;;5068243;28;20025;-54
2021/11/07 02:23:47;;;;;;;;;;;;;;;;;;5068492;28;19904;-55
2021/11/07 02:26:13;;;;;;;;;;;;;;;;;;5069252;28;19916;-55
2021/11/07 02:28:39;;;;;;;;;;;;;;;;;;5068594;28;19927;-55
2021/11/07 02:31:06;;;;;;;;;;;;;;;;;;5068908;28;19961;-55
2021/11/07 02:33:33;;;;;;;;;;;;;;;;;;5068243;28;19908;-55
2021/11/07 02:35:59;;;;;;;;;;;;;;;;;;5068331;28;19941;-54
2021/11/07 02:38:26;;;;;;;;;;;;;;;;;;5068442;28;20304;-54
2021/11/07 02:40:52;;;;;;;;;;;;;;;;;;5068463;28;19912;-54
2021/11/07 02:43:17;;;;;;;;;;;;;;;;;;5068196;28;19931;-54
2021/11/07 02:45:43;;;;;;;;;;;;;;;;;;5069334;28;19905;-53
2021/11/07 02:48:09;;;;;;;;;;;;;;;;;;5068183;28;20402;-55
2021/11/07 02:50:35;;;;;;;;;;;;;;;;;;5068110;28;20272;-54
2021/11/07 02:53:01;;;;;;;;;;;;;;;;;;5068391;28;19908;-54
2021/11/07 02:55:27;;;;;;;;;;;;;;;;;;5068174;28;19958;-55
2021/11/07 02:57:53;;;;;;;;;;;;;;;;;;5068056;28;19962;-55
2021/11/07 03:00:22;;;;;;;;;;;;;;;;;;5067880;28;19905;-54
2021/11/07 03:02:48;;;;;;;;;;;;;;;;;;5067959;28;19931;-54
2021/11/07 03:05:14;;;;;;;;;;;;;;;;;;5068260;28;19904;-53
2021/11/07 03:07:41;;;;;;;;;;;;;;;;;;5068434;28;20505;-53
2021/11/07 03:10:07;;;;;;;;;;;;;;;;;;5067856;28;20349;-53
2021/11/07 03:12:32;;;;;;;;;;;;;;;;;;5067717;28;19908;-53
2021/11/07 03:14:58;;;;;;;;;;;;;;;;;;5067622;28;19916;-53
2021/11/07 03:17:24;;;;;;;;;;;;;;;;;;5067467;28;19905;-53
2021/11/07 03:19:50;;;;;;;;;;;;;;;;;;5067211;28;19974;-53
2021/11/07 03:22:16;;;;;;;;;;;;;;;;;;5067564;28;19908;-54
2021/11/07 03:24:43;;;;;;;;;;;;;;;;;;5068530;28;20438;-54
2021/11/07 03:27:19;;;;;;;;;;;;;;;;;;5067466;28;19911;-54
2021/11/07 03:29:45;;;;;;;;;;;;;;;;;;5068161;28;19912;-54
2021/11/07 03:32:30;;;;;;;;;;;;;;;;;;5067781;28;19940;-55
2021/11/07 03:35:00;;;;;;;;;;;;;;;;;;5067523;28;20490;-54
2021/11/07 03:37:29;;;;;;;;;;;;;;;;;;5067343;28;19904;-53
2021/11/07 03:39:55;;;;;;;;;;;;;;;;;;5067370;28;19999;-54
2021/11/07 03:42:22;;;;;;;;;;;;;;;;;;5065949;28;20034;-54
2021/11/07 03:44:48;;;;;;;;;;;;;;;;;;5067116;28;19905;-54
2021/11/07 03:47:14;;;;;;;;;;;;;;;;;;5067597;28;19954;-54
2021/11/07 03:49:40;;;;;;;;;;;;;;;;;;5067684;28;20367;-54
2021/11/07 03:52:07;;;;;;;;;;;;;;;;;;5067163;28;20272;-53
2021/11/07 03:54:33;;;;;;;;;;;;;;;;;;5066970;28;19908;-54
2021/11/07 03:56:59;;;;;;;;;;;;;;;;;;5067030;28;19931;-54
2021/11/07 03:59:25;;;;;;;;;;;;;;;;;;5066820;28;19929;-54
2021/11/07 04:01:52;;;;;;;;;;;;;;;;;;5066901;28;19904;-55
2021/11/07 04:04:18;;;;;;;;;;;;;;;;;;5066879;28;19911;-54
2021/11/07 04:06:44;;;;;;;;;;;;;;;;;;5067530;28;19912;-54
2021/11/07 04:09:10;;;;;;;;;;;;;;;;;;5066860;28;19908;-53
2021/11/07 04:11:36;;;;;;;;;;;;;;;;;;5066558;28;20011;-55
2021/11/07 04:14:03;;;;;;;;;;;;;;;;;;5066442;28;19909;-54
2021/11/07 04:16:29;;;;;;;;;;;;;;;;;;5075844;28;20306;-53
2021/11/07 04:18:55;;;;;;;;;;;;;;;;;;5086649;28;19908;-54
2021/11/07 04:21:23;;;;;;;;;;;;;;;;;;5086287;28;19904;-54
2021/11/07 04:23:48;;;;;;;;;;;;;;;;;;5086805;28;19994;-53
2021/11/07 04:26:14;;;;;;;;;;;;;;;;;;5087125;28;19999;-55
2021/11/07 04:28:40;;;;;;;;;;;;;;;;;;5087160;28;19929;-55
2021/11/07 04:31:07;;;;;;;;;;;;;;;;;;5086361;28;19910;-54
2021/11/07 04:33:33;;;;;;;;;;;;;;;;;;5086214;28;19908;-53
2021/11/07 04:35:59;;;;;;;;;;;;;;;;;;5086532;28;19908;-54
2021/11/07 04:38:27;;;;;;;;;;;;;;;;;;5085545;28;19908;-54
2021/11/07 04:40:53;;;;;;;;;;;;;;;;;;5086445;28;19904;-54
2021/11/07 04:43:21;;;;;;;;;;;;;;;;;;5086503;28;20306;-54
2021/11/07 04:45:46;;;;;;;;;;;;;;;;;;5086236;28;19973;-54
2021/11/07 04:48:12;;;;;;;;;;;;;;;;;;5086504;28;20378;-54
2021/11/07 04:50:39;;;;;;;;;;;;;;;;;;5086245;28;20406;-54
2021/11/07 04:53:05;;;;;;;;;;;;;;;;;;5086109;28;19919;-55
2021/11/07 04:55:32;;;;;;;;;;;;;;;;;;5084535;28;19908;-55
2021/11/07 04:57:58;;;;;;;;;;;;;;;;;;5086067;28;19927;-54
2021/11/07 05:00:25;;;;;;;;;;;;;;;;;;5085704;28;20399;-54
2021/11/07 05:02:51;;;;;;;;;;;;;;;;;;5086222;28;19904;-55
2021/11/07 05:05:18;;;;;;;;;;;;;;;;;;5085804;28;19927;-54
2021/11/07 05:07:44;;;;;;;;;;;;;;;;;;5086537;28;19920;-54
2021/11/07 05:10:10;;;;;;;;;;;;;;;;;;5086058;28;20013;-54
2021/11/07 05:12:36;;;;;;;;;;;;;;;;;;5085663;28;20011;-55
2021/11/07 05:15:02;;;;;;;;;;;;;;;;;;5085733;28;20026;-53
2021/11/07 05:17:28;;;;;;;;;;;;;;;;;;5085543;28;19999;-54
2021/11/07 05:19:55;;;;;;;;;;;;;;;;;;5085197;28;20049;-52
2021/11/07 05:22:21;;;;;;;;;;;;;;;;;;5085639;28;19986;-54
2021/11/07 05:24:48;;;;;;;;;;;;;;;;;;5085632;28;20331;-54
2021/11/07 05:27:15;;;;;;;;;;;;;;;;;;5086230;28;20308;-54
2021/11/07 05:29:41;;;;;;;;;;;;;;;;;;5086059;28;19904;-53
2021/11/07 05:32:07;;;;;;;;;;;;;;;;;;5085468;28;19931;-54
2021/11/07 05:34:33;;;;;;;;;;;;;;;;;;5085357;28;20362;-53
2021/11/07 05:36:59;;;;;;;;;;;;;;;;;;5085744;28;20318;-53
2021/11/07 05:39:24;;;;;;;;;;;;;;;;;;5085161;28;19908;-53
2021/11/07 05:41:50;;;;;;;;;;;;;;;;;;5085615;28;19958;-54
2021/11/07 05:44:16;;;;;;;;;;;;;;;;;;5084962;28;19904;-54
2021/11/07 05:46:42;;;;;;;;;;;;;;;;;;5086095;28;19950;-55
2021/11/07 05:49:08;;;;;;;;;;;;;;;;;;5085288;28;19908;-54
2021/11/07 05:51:34;;;;;;;;;;;;;;;;;;5085301;28;20461;-53
2021/11/07 05:54:00;;;;;;;;;;;;;;;;;;5085805;28;19904;-54
2021/11/07 05:56:26;;;;;;;;;;;;;;;;;;5085173;28;19915;-54
2021/11/07 05:58:53;;;;;;;;;;;;;;;;;;5085003;28;20321;-54
2021/11/07 06:01:18;;;;;;;;;;;;;;;;;;5085401;28;19907;-54
2021/11/07 06:03:44;;;;;;;;;;;;;;;;;;5085984;28;20484;-52
2021/11/07 06:06:12;;;;;;;;;;;;;;;;;;5085847;28;19999;-54
2021/11/07 06:08:38;;;;;;;;;;;;;;;;;;5085024;28;19915;-53
2021/11/07 06:11:04;;;;;;;;;;;;;;;;;;5085189;28;20295;-54
2021/11/07 06:13:30;;;;;;;;;;;;;;;;;;5084491;28;20345;-53
2021/11/07 06:15:57;;;;;;;;;;;;;;;;;;5084871;28;20274;-54
2021/11/07 06:18:23;;;;;;;;;;;;;;;;;;5084756;28;19908;-55
2021/11/07 06:20:49;;;;;;;;;;;;;;;;;;5084746;28;19904;-54
2021/11/07 06:23:15;;;;;;;;;;;;;;;;;;5084498;28;19912;-55
2021/11/07 06:25:42;;;;;;;;;;;;;;;;;;5085655;28;20298;-54
2021/11/07 06:28:08;;;;;;;;;;;;;;;;;;5084632;28;19908;-55
2021/11/07 06:30:34;;;;;;;;;;;;;;;;;;5084827;28;19953;-53
2021/11/07 06:33:00;;;;;;;;;;;;;;;;;;5084868;28;19911;-54
2021/11/07 06:35:26;;;;;;;;;;;;;;;;;;5084325;28;20363;-53
2021/11/07 06:37:52;;;;;;;;;;;;;;;;;;5084891;28;19915;-54
2021/11/07 06:40:19;;;;;;;;;;;;;;;;;;5084934;28;19908;-53
2021/11/07 06:42:45;;;;;;;;;;;;;;;;;;5084620;28;20429;-54
2021/11/07 06:45:11;;;;;;;;;;;;;;;;;;5085148;28;20010;-54
2021/11/07 06:47:38;;;;;;;;;;;;;;;;;;5084645;28;20448;-53
2021/11/07 06:50:04;;;;;;;;;;;;;;;;;;5084695;28;20007;-55
2021/11/07 06:52:30;;;;;;;;;;;;;;;;;;5075974;28;20350;-52
2021/11/07 06:54:56;;;;;;;;;;;;;;;;;;5065444;28;19913;-54
2021/11/07 06:57:22;;;;;;;;;;;;;;;;;;5065015;28;19939;-54
2021/11/07 06:59:47;;;;;;;;;;;;;;;;;;5082073;28;19904;-53
2021/11/07 07:02:13;;;;;;;;;;;;;;;;;;5088252;28;19908;-53
2021/11/07 07:04:39;;;;;;;;;;;;;;;;;;5089345;28;19908;-54
2021/11/07 07:07:06;;;;;;;;;;;;;;;;;;5088942;28;19912;-55
2021/11/07 07:09:40;;;;;;;;;;;;;;;;;;5088525;28;19991;-54
2021/11/07 07:12:15;;;;;;;;;;;;;;;;;;5088648;28;19908;-54
2021/11/07 07:33:25;;;;;;;;;;;;;;;;;;5088222;28;20421;-53
2021/11/07 07:35:38;;;;;;;;;;;;;;;;;;5087642;28;19942;-53
2021/11/07 07:38:04;;;;;;;;;;;;;;;;;;5088046;28;19908;-54
2021/11/07 07:40:30;;;;;;;;;;;;;;;;;;5087808;28;19911;-54
2021/11/07 07:42:56;;;;;;;;;;;;;;;;;;5087860;28;19904;-53
2021/11/07 07:45:23;;;;;;;;;;;;;;;;;;5087870;28;19911;-54
2021/11/07 07:47:50;;;;;;;;;;;;;;;;;;5087954;28;19915;-54
2021/11/07 07:50:17;;;;;;;;;;;;;;;;;;5087516;28;19908;-52
2021/11/07 07:52:43;;;;;;;;;;;;;;;;;;5088368;28;20386;-53
2021/11/07 07:55:09;;;;;;;;;;;;;;;;;;5087440;28;19961;-54
2021/11/07 07:57:35;;;;;;;;;;;;;;;;;;5087416;28;19964;-54
2021/11/07 08:00:01;;;;;;;;;;;;;;;;;;5086495;28;20211;-54
2021/11/07 08:02:27;;;;;;;;;;;;;;;;;;5087561;28;20378;-52
2021/11/07 08:04:53;;;;;;;;;;;;;;;;;;5087656;28;19904;-54
2021/11/07 08:07:19;;;;;;;;;;;;;;;;;;5087259;28;19933;-54
2021/11/07 08:09:45;;;;;;;;;;;;;;;;;;5087694;28;19916;-54
2021/11/07 08:12:10;;;;;;;;;;;;;;;;;;5087381;28;20342;-54
2021/11/07 08:14:36;;;;;;;;;;;;;;;;;;5086675;28;19911;-53
2021/11/07 08:17:03;;;;;;;;;;;;;;;;;;5087274;28;19904;-53
2021/11/07 08:19:30;;;;;;;;;;;;;;;;;;5086463;28;19916;-52
2021/11/07 08:21:56;;;;;;;;;;;;;;;;;;5087065;28;19939;-54
2021/11/07 08:24:22;;;;;;;;;;;;;;;;;;5086914;28;19947;-53
2021/11/07 08:26:49;;;;;;;;;;;;;;;;;;5087204;28;19912;-54
2021/11/07 08:29:17;;;;;;;;;;;;;;;;;;5086573;28;20295;-53
2021/11/07 08:31:44;;;;;;;;;;;;;;;;;;5087591;28;19910;-52
2021/11/07 08:34:11;;;;;;;;;;;;;;;;;;5087797;28;20170;-54
2021/11/07 08:39:13;;;;;;;;;;;;;;;;;;5086562;28;19911;-53
2021/11/07 08:41:46;;;;;;;;;;;;;;;;;;5086737;28;19935;-54
2021/11/07 09:00:29;;;;;;;;;;;;;;;;;;5079513;28;20451;-54
2021/11/07 09:03:15;;;;;;;;;;;;;;;;;;5082741;28;19923;-55
2021/11/07 09:08:27;;;;;;;;;;;;;;;;;;5073080;28;19954;-54
2021/11/07 09:10:54;;;;;;;;;;;;;;;;;;5086086;28;20359;-53
2021/11/07 09:13:20;;;;;;;;;;;;;;;;;;5081196;28;20007;-53
2021/11/07 09:15:46;;;;;;;;;;;;;;;;;;5074955;28;20010;-54
2021/11/07 09:18:12;;;;;;;;;;;;;;;;;;5073069;28;19915;-54
2021/11/07 09:24:12;;;;;;;;;;;;;;;;;;5084260;28;19908;-53
2021/11/07 09:26:17;;;;;;;;;;;;;;;;;;5072184;28;19961;-54
2021/11/07 09:29:00;;;;;;;;;;;;;;;;;;5087878;28;19904;-54
2021/11/07 09:31:39;;;;;;;;;;;;;;;;;;5087239;28;19904;-53
2021/11/07 09:34:16;;;;;;;;;;;;;;;;;;5078337;28;19938;-54
2021/11/07 09:37:28;;;;;;;;;;;;;;;;;;5084693;28;19920;-51
2021/11/07 09:40:07;;;;;;;;;;;;;;;;;;5066497;28;19947;-52
2021/11/07 09:43:39;;;;;;;;;;;;;;;;;;5066491;28;19932;-52
2021/11/07 09:45:32;;;;;;;;;;;;;;;;;;5067082;28;19955;-54
2021/11/07 09:48:12;;;;;;;;;;;;;;;;;;5067235;28;20286;-54
2021/11/07 09:50:39;;;;;;;;;;;;;;;;;;5067012;28;19907;-53
2021/11/07 09:53:05;;;;;;;;;;;;;;;;;;5066450;28;20637;-55
2021/11/07 09:55:32;;;;;;;;;;;;;;;;;;5076494;28;19916;-55
2021/11/07 09:57:59;;;;;;;;;;;;;;;;;;5066875;28;20264;-55
2021/11/07 10:00:25;;;;;;;;;;;;;;;;;;5067667;28;19912;-55
2021/11/07 10:02:52;;;;;;;;;;;;;;;;;;5080354;28;19908;-54
2021/11/07 10:05:19;;;;;;;;;;;;;;;;;;5083802;28;19908;-56
2021/11/07 10:07:45;;;;;;;;;;;;;;;;;;5087461;28;20509;-55
2021/11/07 10:10:14;;;;;;;;;;;;;;;;;;5087328;28;20295;-55
2021/11/07 10:12:46;;;;;;;;;;;;;;;;;;5085612;28;19919;-55
2021/11/07 10:15:12;;;;;;;;;;;;;;;;;;5080771;28;19912;-53
2021/11/07 10:17:42;;;;;;;;;;;;;;;;;;5069552;28;20359;-55
2021/11/07 10:20:16;;;;;;;;;;;;;;;;;;5077637;28;19914;-55
2021/11/07 10:22:42;;;;;;;;;;;;;;;;;;5074682;28;19911;-55
2021/11/07 10:25:16;;;;;;;;;;;;;;;;;;5066492;28;19904;-55
2021/11/07 10:27:46;;;;;;;;;;;;;;;;;;5080894;28;20325;-55
2021/11/07 10:30:16;;;;;;;;;;;;;;;;;;5066752;28;19999;-54
2021/11/07 10:32:55;;;;;;;;;;;;;;;;;;5071608;28;19991;-54
2021/11/07 10:43:20;;;;;;;;;;;;;;;;;;5086479;28;20077;-55
2021/11/07 10:53:58;;;;;;;;;;;;;;;;;;5082500;28;20357;-55
2021/11/07 10:56:24;;;;;;;;;;;;;;;;;;5088521;28;20448;-56
2021/11/07 10:58:50;;;;;;;;;;;;;;;;;;5079997;28;19904;-56
2021/11/07 11:01:21;;;;;;;;;;;;;;;;;;5087875;28;19908;-56
2021/11/07 11:03:47;;;;;;;;;;;;;;;;;;5090625;28;19904;-56
2021/11/07 11:06:13;;;;;;;;;;;;;;;;;;5091581;28;19913;-56
2021/11/07 11:08:45;;;;;;;;;;;;;;;;;;5088031;28;19956;-56
2021/11/07 11:16:35;;;;;;;;;;;;;;;;;;5070438;28;19969;-54
2021/11/07 11:19:16;;;;;;;;;;;;;;;;;;5069812;28;19951;-55
2021/11/07 11:32:35;;;;;;;;;;;;;;;;;;5077860;28;19908;-54
2021/11/07 11:42:33;;;;;;;;;;;;;;;;;;5069837;28;19904;-53
2021/11/07 11:44:59;;;;;;;;;;;;;;;;;;5069583;28;20359;-55
2021/11/07 11:51:00;;;;;;;;;;;;;;;;;;5074560;28;19912;-55
2021/11/07 11:55:50;;;;;;;;;;;;;;;;;;5073012;28;20340;-55
2021/11/07 12:00:42;;;;;;;;;;;;;;;;;;5068024;28;20391;-55
2021/11/07 12:03:14;;;;;;;;;;;;;;;;;;5081601;28;19904;-56
2021/11/07 12:05:45;;;;;;;;;;;;;;;;;;5081501;28;19908;-56
2021/11/07 12:13:21;;;;;;;;;;;;;;;;;;5068602;28;19912;-56
2021/11/07 12:15:50;;;;;;;;;;;;;;;;;;5068642;28;19923;-56
2021/11/07 12:18:16;;;;;;;;;;;;;;;;;;5068526;28;20454;-55
2021/11/07 12:20:44;;;;;;;;;;;;;;;;;;5087945;28;19919;-56
2021/11/07 12:23:11;;;;;;;;;;;;;;;;;;5089127;28;20263;-56
2021/11/07 12:25:37;;;;;;;;;;;;;;;;;;5089019;28;19945;-55
2021/11/07 12:28:03;;;;;;;;;;;;;;;;;;5068398;28;19922;-56
2021/11/07 12:30:30;;;;;;;;;;;;;;;;;;5068549;28;20011;-56
2021/11/07 12:32:56;;;;;;;;;;;;;;;;;;5070961;28;19912;-55
2021/11/07 12:35:24;;;;;;;;;;;;;;;;;;5087444;28;19956;-52
2021/11/07 12:40:35;;;;;;;;;;;;;;;;;;5067871;28;20334;-54
2021/11/07 12:43:01;;;;;;;;;;;;;;;;;;5067969;28;20720;-52
2021/11/07 12:45:37;;;;;;;;;;;;;;;;;;5067612;28;20263;-51
2021/11/07 12:48:06;;;;;;;;;;;;;;;;;;5067874;28;19908;-50
2021/11/07 12:50:32;;;;;;;;;;;;;;;;;;5074001;28;20527;-52
2021/11/07 12:52:59;;;;;;;;;;;;;;;;;;5075049;28;19991;-51
2021/11/07 12:55:25;;;;;;;;;;;;;;;;;;5067252;28;19912;-53
2021/11/07 12:57:51;;;;;;;;;;;;;;;;;;5069411;28;19946;-52
2021/11/07 13:00:17;;;;;;;;;;;;;;;;;;5065332;28;19954;-51
2021/11/07 13:02:43;;;;;;;;;;;;;;;;;;5070728;28;20240;-51
2021/11/07 13:05:15;;;;;;;;;;;;;;;;;;5087705;28;19904;-52
2021/11/07 13:07:46;;;;;;;;;;;;;;;;;;5087320;28;20275;-53
2021/11/07 13:10:15;;;;;;;;;;;;;;;;;;5074732;28;20016;-52
2021/11/07 13:12:47;;;;;;;;;;;;;;;;;;5067424;28;19912;-53
2021/11/07 13:17:48;;;;;;;;;;;;;;;;;;5088121;28;20383;-53
2021/11/07 13:20:28;;;;;;;;;;;;;;;;;;5086619;28;19911;-52
2021/11/07 13:23:06;;;;;;;;;;;;;;;;;;5070203;28;19908;-53
2021/11/07 13:25:57;;;;;;;;;;;;;;;;;;5086467;28;19919;-49
2021/11/07 13:30:54;;;;;;;;;;;;;;;;;;5087415;28;19911;-51
2021/11/07 13:33:22;;;;;;;;;;;;;;;;;;5077256;28;19908;-53
2021/11/07 13:35:52;;;;;;;;;;;;;;;;;;5067820;28;19913;-52
2021/11/07 13:38:18;;;;;;;;;;;;;;;;;;5066981;28;20284;-53
2021/11/07 13:40:44;;;;;;;;;;;;;;;;;;5065739;28;19905;-53
2021/11/07 13:43:14;;;;;;;;;;;;;;;;;;5067947;28;20360;-51
2021/11/07 13:45:40;;;;;;;;;;;;;;;;;;5067262;28;19911;-50
2021/11/07 13:48:06;;;;;;;;;;;;;;;;;;5067102;28;19908;-52
2021/11/07 13:50:32;;;;;;;;;;;;;;;;;;5066716;28;19917;-52
2021/11/07 13:52:58;;;;;;;;;;;;;;;;;;5079281;28;19908;-53
2021/11/07 13:55:25;;;;;;;;;;;;;;;;;;5074552;28;20030;-53
2021/11/07 13:57:51;;;;;;;;;;;;;;;;;;5084929;28;19943;-53
2021/11/07 14:00:17;;;;;;;;;;;;;;;;;;5087141;28;19908;-54
2021/11/07 14:02:43;;;;;;;;;;;;;;;;;;5085630;28;19970;-53
2021/11/07 14:05:09;;;;;;;;;;;;;;;;;;5077908;28;20384;-51
2021/11/07 14:07:36;;;;;;;;;;;;;;;;;;5065571;28;19913;-53
2021/11/07 14:10:03;;;;;;;;;;;;;;;;;;5066692;28;20431;-51
2021/11/07 14:12:30;;;;;;;;;;;;;;;;;;5081124;28;19959;-52
2021/11/07 14:14:55;;;;;;;;;;;;;;;;;;5070984;28;19912;-53
2021/11/07 14:17:22;;;;;;;;;;;;;;;;;;5077686;28;19915;-51
2021/11/07 14:19:54;;;;;;;;;;;;;;;;;;5084168;28;20055;-52
2021/11/07 14:22:20;;;;;;;;;;;;;;;;;;5070983;28;20715;-49
2021/11/07 14:24:46;;;;;;;;;;;;;;;;;;5070663;28;19912;-52
2021/11/07 14:27:20;;;;;;;;;;;;;;;;;;5070579;28;19908;-52
2021/11/07 14:29:56;;;;;;;;;;;;;;;;;;5070867;28;19919;-51
2021/11/07 14:32:34;;;;;;;;;;;;;;;;;;5070188;28;19918;-52
2021/11/07 14:37:31;;;;;;;;;;;;;;;;;;5075360;28;19919;-50
2021/11/07 14:39:59;;;;;;;;;;;;;;;;;;5088233;28;19916;-51
2021/11/07 14:45:08;;;;;;;;;;;;;;;;;;5091232;28;19904;-53
2021/11/07 14:47:49;;;;;;;;;;;;;;;;;;5072011;28;19961;-51
2021/11/07 14:50:32;;;;;;;;;;;;;;;;;;5069915;28;19916;-50
2021/11/07 14:53:01;;;;;;;;;;;;;;;;;;5072404;28;20360;-53
2021/11/07 14:55:49;;;;;;;;;;;;;;;;;;5085017;28;19912;-53
2021/11/07 15:00:58;;;;;;;;;;;;;;;;;;5072305;28;19959;-53
2021/11/07 15:03:35;;;;;;;;;;;;;;;;;;5076861;28;19908;-53
2021/11/07 15:06:07;;;;;;;;;;;;;;;;;;5070190;28;19950;-49
2021/11/07 15:08:37;;;;;;;;;;;;;;;;;;5078229;28;19912;-53
2021/11/07 15:13:45;;;;;;;;;;;;;;;;;;5072480;28;19908;-54
2021/11/07 15:19:24;;;;;;;;;;;;;;;;;;5084219;28;20405;-53
2021/11/07 15:24:12;;;;;;;;;;;;;;;;;;5069397;28;20473;-53
2021/11/07 15:26:39;;;;;;;;;;;;;;;;;;5069422;28;20329;-52
2021/11/07 15:29:05;;;;;;;;;;;;;;;;;;5067352;28;20391;-52
2021/11/07 15:31:32;;;;;;;;;;;;;;;;;;5070326;28;19962;-53
2021/11/07 15:33:58;;;;;;;;;;;;;;;;;;5078231;28;19950;-53
2021/11/07 15:36:24;;;;;;;;;;;;;;;;;;5084009;28;19951;-55
2021/11/07 15:38:50;;;;;;;;;;;;;;;;;;5088988;28;20542;-54
2021/11/07 15:41:16;;;;;;;;;;;;;;;;;;5079661;28;19918;-54
2021/11/07 15:43:42;;;;;;;;;;;;;;;;;;5075274;28;19908;-54
2021/11/07 15:46:12;;;;;;;;;;;;;;;;;;5078482;28;20010;-51
2021/11/07 15:48:49;;;;;;;;;;;;;;;;;;5068714;28;20305;-54
2021/11/07 15:56:56;;;;;;;;;;;;;;;;;;5086395;28;19912;-53
2021/11/07 16:07:50;;;;;;;;;;;;;;;;;;5068192;28;20000;-53
2021/11/07 16:10:08;;;;;;;;;;;;;;;;;;5066599;28;19939;-54
2021/11/07 16:12:39;;;;;;;;;;;;;;;;;;5069124;28;19920;-54
2021/11/07 16:15:14;;;;;;;;;;;;;;;;;;5088345;28;19908;-55
2021/11/07 16:17:43;;;;;;;;;;;;;;;;;;5087031;28;19911;-53
2021/11/07 16:20:16;;;;;;;;;;;;;;;;;;5073384;28;19959;-55
2021/11/07 16:22:46;;;;;;;;;;;;;;;;;;5087972;28;19963;-54
2021/11/07 16:25:12;;;;;;;;;;;;;;;;;;5087866;28;20290;-55
2021/11/07 16:27:39;;;;;;;;;;;;;;;;;;5087047;28;20064;-54
2021/11/07 16:30:05;;;;;;;;;;;;;;;;;;5072496;28;20453;-55
2021/11/07 16:32:34;;;;;;;;;;;;;;;;;;5067503;28;19936;-52
2021/11/07 16:37:30;;;;;;;;;;;;;;;;;;5067373;28;19908;-54
2021/11/07 16:40:04;;;;;;;;;;;;;;;;;;5079703;28;20012;-52
2021/11/07 16:42:30;;;;;;;;;;;;;;;;;;5085218;28;20436;-53
2021/11/07 16:44:58;;;;;;;;;;;;;;;;;;5082699;28;19912;-53
2021/11/07 16:47:27;;;;;;;;;;;;;;;;;;5087239;28;19996;-55
2021/11/07 16:49:56;;;;;;;;;;;;;;;;;;5085884;28;19919;-54
2021/11/07 16:52:25;;;;;;;;;;;;;;;;;;5087056;28;20317;-52
2021/11/07 16:55:11;;;;;;;;;;;;;;;;;;5068020;28;19918;-54
2021/11/07 16:57:38;;;;;;;;;;;;;;;;;;5066917;28;19940;-53
2021/11/07 17:00:22;;;;;;;;;;;;;;;;;;5066273;28;19955;-52
2021/11/07 17:07:50;;;;;;;;;;;;;;;;;;5066995;28;20021;-54
2021/11/07 17:10:17;;;;;;;;;;;;;;;;;;5066258;28;19999;-52
2021/11/07 17:12:54;;;;;;;;;;;;;;;;;;5065563;28;20270;-52
2021/11/07 17:18:03;;;;;;;;;;;;;;;;;;5067602;28;19921;-54
2021/11/07 17:25:44;;;;;;;;;;;;;;;;;;5066625;28;19912;-53
2021/11/07 17:28:24;;;;;;;;;;;;;;;;;;5068125;28;20309;-52
2021/11/07 17:30:56;;;;;;;;;;;;;;;;;;5086590;28;19905;-53
2021/11/07 17:33:46;;;;;;;;;;;;;;;;;;5081403;28;19999;-56
2021/11/07 17:38:57;;;;;;;;;;;;;;;;;;5076566;28;19908;-56
2021/11/07 17:55:26;;;;;;;;;;;;;;;;;;5075488;28;19959;-56
2021/11/07 17:57:56;;;;;;;;;;;;;;;;;;5078119;28;19908;-57
2021/11/07 18:00:25;;;;;;;;;;;;;;;;;;5078090;28;20004;-57
2021/11/07 18:02:55;;;;;;;;;;;;;;;;;;5070761;28;19908;-57
2021/11/07 18:05:28;;;;;;;;;;;;;;;;;;5071514;28;20002;-57
2021/11/07 18:10:44;;;;;;;;;;;;;;;;;;5069506;28;19919;-57
2021/11/07 18:13:10;;;;;;;;;;;;;;;;;;5077619;28;19915;-57
2021/11/07 18:15:36;;;;;;;;;;;;;;;;;;5064923;28;19912;-57
2021/11/07 18:18:02;;;;;;;;;;;;;;;;;;5078780;28;19908;-57
2021/11/07 18:20:28;;;;;;;;;;;;;;;;;;5077085;28;19908;-56
2021/11/07 18:22:59;;;;;;;;;;;;;;;;;;5073077;28;19919;-57
2021/11/07 18:25:37;;;;;;;;;;;;;;;;;;5070685;28;21160;-55
2021/11/07 18:28:03;;;;;;;;;;;;;;;;;;5086583;28;19908;-56
2021/11/07 18:30:29;;;;;;;;;;;;;;;;;;5078936;28;20025;-56
2021/11/07 18:32:55;;;;;;;;;;;;;;;;;;5076435;28;20022;-56
2021/11/07 18:35:21;;;;;;;;;;;;;;;;;;5075631;28;20002;-56
2021/11/07 18:37:54;;;;;;;;;;;;;;;;;;5077998;28;19911;-57
2021/11/07 18:40:20;;;;;;;;;;;;;;;;;;5075172;28;19939;-56
2021/11/07 18:42:49;;;;;;;;;;;;;;;;;;5076904;28;20302;-55
2021/11/07 18:45:15;;;;;;;;;;;;;;;;;;5074142;28;20000;-56
2021/11/07 18:47:41;;;;;;;;;;;;;;;;;;5079244;28;19949;-57
2021/11/07 18:50:07;;;;;;;;;;;;;;;;;;5070915;28;20007;-57
2021/11/07 18:52:33;;;;;;;;;;;;;;;;;;5072068;28;19912;-57
2021/11/07 18:55:00;;;;;;;;;;;;;;;;;;5084066;28;19912;-56
2021/11/07 18:57:26;;;;;;;;;;;;;;;;;;5073847;28;20004;-57
2021/11/07 18:59:53;;;;;;;;;;;;;;;;;;5072405;28;20385;-57
2021/11/07 19:02:19;;;;;;;;;;;;;;;;;;5068788;28;19909;-56
2021/11/07 19:04:45;;;;;;;;;;;;;;;;;;5074350;28;19923;-57
2021/11/07 19:07:11;;;;;;;;;;;;;;;;;;5079274;28;19908;-56
2021/11/07 19:09:37;;;;;;;;;;;;;;;;;;5075953;28;19922;-57
2021/11/07 19:12:03;;;;;;;;;;;;;;;;;;5081591;28;19908;-57
2021/11/07 19:14:29;;;;;;;;;;;;;;;;;;5077598;28;19904;-57
2021/11/07 19:16:55;;;;;;;;;;;;;;;;;;5070331;28;19935;-57
2021/11/07 19:19:21;;;;;;;;;;;;;;;;;;5072673;28;19904;-57
2021/11/07 19:21:47;;;;;;;;;;;;;;;;;;5078107;28;20297;-57
2021/11/07 19:24:13;;;;;;;;;;;;;;;;;;5072252;28;19904;-57
2021/11/07 19:26:40;;;;;;;;;;;;;;;;;;5076967;28;19919;-57
2021/11/07 19:29:06;;;;;;;;;;;;;;;;;;5072974;28;19912;-56
2021/11/07 19:31:31;;;;;;;;;;;;;;;;;;5073710;28;19922;-56
2021/11/07 19:33:59;;;;;;;;;;;;;;;;;;5072723;28;19908;-55
2021/11/07 19:36:25;;;;;;;;;;;;;;;;;;5080073;28;19989;-55
2021/11/07 19:38:51;;;;;;;;;;;;;;;;;;5082342;28;19916;-56
2021/11/07 19:41:19;;;;;;;;;;;;;;;;;;5071390;28;19915;-56
2021/11/07 19:43:46;;;;;;;;;;;;;;;;;;5073636;28;19919;-55
2021/11/07 19:46:14;;;;;;;;;;;;;;;;;;5082212;28;19908;-54
2021/11/07 19:49:19;;;;;;;;;;;;;;;;;;5076783;28;19916;-57
2021/11/07 19:51:44;;;;;;;;;;;;;;;;;;5077630;28;19961;-56
2021/11/07 19:54:10;;;;;;;;;;;;;;;;;;5085756;28;19959;-57
2021/11/07 19:56:36;;;;;;;;;;;;;;;;;;5071901;28;19958;-56
2021/11/07 19:59:02;;;;;;;;;;;;;;;;;;5089225;28;19940;-56
2021/11/07 20:09:36;;;;;;;;;;;;;;;;;;5074278;28;19912;-56
2021/11/07 20:12:03;;;;;;;;;;;;;;;;;;5074447;28;19904;-56
2021/11/07 20:14:29;;;;;;;;;;;;;;;;;;5067274;28;19905;-56
2021/11/07 20:16:55;;;;;;;;;;;;;;;;;;5068286;28;20540;-56
2021/11/07 20:19:22;;;;;;;;;;;;;;;;;;5081356;28;19908;-57